sensor_id;sensor_type;location;lat;lon;timestamp;pressure;altitude;pressure_sealevel;temperature;humidity
39405;BME280;25121;51.090;17.038;2023-04-23T00:01:31;99566.50;;;13.28;47.10
39405;BME280;25121;51.090;17.038;2023-04-23T00:03:05;99570.25;;;13.27;47.41
39405;BME280;25121;51.090;17.038;2023-04-23T00:04:30;99576.88;;;13.25;47.45
39405;BME280;25121;51.090;17.038;2023-04-23T00:05:56;99577.06;;;13.23;47.59
39405;BME280;25121;51.090;17.038;2023-04-23T00:07:19;99571.88;;;13.22;47.46
39405;BME280;25121;51.090;17.038;2023-04-23T00:08:41;99572.28;;;13.19;47.33
39405;BME280;25121;51.090;17.038;2023-04-23T00:10:04;99572.69;;;13.15;47.27
39405;BME280;25121;51.090;17.038;2023-04-23T00:11:29;99564.38;;;13.10;47.34
39405;BME280;25121;51.090;17.038;2023-04-23T00:12:52;99577.44;;;13.13;47.49
39405;BME280;25121;51.090;17.038;2023-04-23T00:14:14;99571.41;;;13.11;47.68
39405;BME280;25121;51.090;17.038;2023-04-23T00:15:36;99566.66;;;13.07;47.48
39405;BME280;25121;51.090;17.038;2023-04-23T00:16:59;99566.03;;;13.05;47.48
39405;BME280;25121;51.090;17.038;2023-04-23T00:18:21;99575.38;;;13.02;47.82
39405;BME280;25121;51.090;17.038;2023-04-23T00:19:44;99561.44;;;12.99;47.57
39405;BME280;25121;51.090;17.038;2023-04-23T00:21:07;99567.06;;;12.97;47.91
39405;BME280;25121;51.090;17.038;2023-04-23T00:22:29;99565.59;;;12.95;48.29
39405;BME280;25121;51.090;17.038;2023-04-23T00:23:50;99571.00;;;12.95;48.23
39405;BME280;25121;51.090;17.038;2023-04-23T00:25:13;99556.44;;;12.89;48.30
39405;BME280;25121;51.090;17.038;2023-04-23T00:26:34;99567.22;;;12.89;48.37
39405;BME280;25121;51.090;17.038;2023-04-23T00:27:57;99566.41;;;12.88;48.46
39405;BME280;25121;51.090;17.038;2023-04-23T00:29:18;99569.50;;;12.85;48.43
39405;BME280;25121;51.090;17.038;2023-04-23T00:30:41;99568.88;;;12.83;48.52
39405;BME280;25121;51.090;17.038;2023-04-23T00:32:04;99565.75;;;12.80;48.60
39405;BME280;25121;51.090;17.038;2023-04-23T00:33:29;99565.13;;;12.78;48.68
39405;BME280;25121;51.090;17.038;2023-04-23T00:34:50;99559.28;;;12.74;48.93
39405;BME280;25121;51.090;17.038;2023-04-23T00:36:14;99553.69;;;12.69;48.88
39405;BME280;25121;51.090;17.038;2023-04-23T00:37:36;99559.06;;;12.69;49.14
39405;BME280;25121;51.090;17.038;2023-04-23T00:38:58;99553.03;;;12.67;49.25
39405;BME280;25121;51.090;17.038;2023-04-23T00:40:20;99550.97;;;12.62;49.26
39405;BME280;25121;51.090;17.038;2023-04-23T00:41:46;99557.19;;;12.63;49.28
39405;BME280;25121;51.090;17.038;2023-04-23T00:43:07;99559.25;;;12.61;49.66
39405;BME280;25121;51.090;17.038;2023-04-23T00:44:31;99556.16;;;12.57;49.70
39405;BME280;25121;51.090;17.038;2023-04-23T00:45:53;99549.28;;;12.55;49.78
39405;BME280;25121;51.090;17.038;2023-04-23T00:47:15;99557.56;;;12.53;49.73
39405;BME280;25121;51.090;17.038;2023-04-23T00:48:39;99550.91;;;12.49;49.52
39405;BME280;25121;51.090;17.038;2023-04-23T00:50:03;99553.19;;;12.45;49.43
39405;BME280;25121;51.090;17.038;2023-04-23T00:51:28;99552.97;;;12.40;49.77
39405;BME280;25121;51.090;17.038;2023-04-23T00:52:52;99547.75;;;12.39;49.94
39405;BME280;25121;51.090;17.038;2023-04-23T00:54:14;99549.81;;;12.37;50.04
39405;BME280;25121;51.090;17.038;2023-04-23T00:55:38;99546.69;;;12.33;49.97
39405;BME280;25121;51.090;17.038;2023-04-23T00:57:09;99546.06;;;12.31;49.98
39405;BME280;25121;51.090;17.038;2023-04-23T00:58:32;99547.28;;;12.28;50.29
39405;BME280;25121;51.090;17.038;2023-04-23T01:00:09;99543.13;;;12.26;50.42
39405;BME280;25121;51.090;17.038;2023-04-23T01:01:37;99546.44;;;12.21;50.55
39405;BME280;25121;51.090;17.038;2023-04-23T01:03:07;99527.09;;;12.11;50.62
39405;BME280;25121;51.090;17.038;2023-04-23T01:04:33;99550.34;;;12.19;50.58
39405;BME280;25121;51.090;17.038;2023-04-23T01:05:56;99542.44;;;12.17;50.69
39405;BME280;25121;51.090;17.038;2023-04-23T01:07:24;99545.78;;;12.13;50.55
39405;BME280;25121;51.090;17.038;2023-04-23T01:08:48;99531.22;;;12.07;50.68
39405;BME280;25121;51.090;17.038;2023-04-23T01:10:12;99545.78;;;12.13;50.85
39405;BME280;25121;51.090;17.038;2023-04-23T01:11:34;99547.81;;;12.11;50.63
39405;BME280;25121;51.090;17.038;2023-04-23T01:12:59;99551.53;;;12.10;50.91
39405;BME280;25121;51.090;17.038;2023-04-23T01:14:21;99549.25;;;12.06;50.78
39405;BME280;25121;51.090;17.038;2023-04-23T01:15:44;99549.25;;;12.06;50.73
39405;BME280;25121;51.090;17.038;2023-04-23T01:17:07;99542.19;;;12.05;51.02
39405;BME280;25121;51.090;17.038;2023-04-23T01:18:28;99541.16;;;12.06;51.03
39405;BME280;25121;51.090;17.038;2023-04-23T01:19:52;99541.56;;;12.03;51.27
39405;BME280;25121;51.090;17.038;2023-04-23T01:21:16;99550.47;;;12.04;51.26
39405;BME280;25121;51.090;17.038;2023-04-23T01:22:43;99546.94;;;12.03;51.19
39405;BME280;25121;51.090;17.038;2023-04-23T01:24:04;99546.31;;;12.01;51.19
39405;BME280;25121;51.090;17.038;2023-04-23T01:25:27;99547.13;;;12.02;51.26
39405;BME280;25121;51.090;17.038;2023-04-23T01:26:49;99542.97;;;11.99;50.77
39405;BME280;25121;51.090;17.038;2023-04-23T01:28:17;99540.28;;;11.93;50.89
39405;BME280;25121;51.090;17.038;2023-04-23T01:29:42;99540.50;;;11.98;50.77
39405;BME280;25121;51.090;17.038;2023-04-23T01:31:13;99543.38;;;11.96;50.86
39405;BME280;25121;51.090;17.038;2023-04-23T01:32:38;99535.25;;;11.90;51.06
39405;BME280;25121;51.090;17.038;2023-04-23T01:34:02;99517.81;;;11.85;51.07
39405;BME280;25121;51.090;17.038;2023-04-23T01:35:28;99533.19;;;11.92;51.36
39405;BME280;25121;51.090;17.038;2023-04-23T01:37:01;99534.88;;;11.93;51.06
39405;BME280;25121;51.090;17.038;2023-04-23T01:38:34;99533.19;;;11.92;50.97
39405;BME280;25121;51.090;17.038;2023-04-23T01:40:04;99534.25;;;11.91;51.21
39405;BME280;25121;51.090;17.038;2023-04-23T01:41:31;99533.41;;;11.90;51.12
39405;BME280;25121;51.090;17.038;2023-04-23T01:42:53;99525.72;;;11.87;51.24
39405;BME280;25121;51.090;17.038;2023-04-23T01:44:17;99530.47;;;11.85;51.26
39405;BME280;25121;51.090;17.038;2023-04-23T01:45:47;99534.66;;;11.88;51.43
39405;BME280;25121;51.090;17.038;2023-04-23T01:47:17;99524.19;;;11.78;51.38
39405;BME280;25121;51.090;17.038;2023-04-23T01:48:39;99517.34;;;11.75;51.44
39405;BME280;25121;51.090;17.038;2023-04-23T01:50:06;99530.00;;;11.81;51.46
39405;BME280;25121;51.090;17.038;2023-04-23T01:51:31;99531.66;;;11.82;51.62
39405;BME280;25121;51.090;17.038;2023-04-23T01:52:52;99530.19;;;11.80;51.41
39405;BME280;25121;51.090;17.038;2023-04-23T01:54:18;99527.72;;;11.78;51.39
39405;BME280;25121;51.090;17.038;2023-04-23T01:55:45;99531.41;;;11.77;51.40
39405;BME280;25121;51.090;17.038;2023-04-23T01:57:17;99522.09;;;11.73;51.29
39405;BME280;25121;51.090;17.038;2023-04-23T01:58:48;99527.25;;;11.75;51.37
39405;BME280;25121;51.090;17.038;2023-04-23T02:00:26;99524.78;;;11.73;51.66
39405;BME280;25121;51.090;17.038;2023-04-23T02:01:49;99523.94;;;11.73;51.62
39405;BME280;25121;51.090;17.038;2023-04-23T02:03:12;99522.09;;;11.73;51.67
39405;BME280;25121;51.090;17.038;2023-04-23T02:04:40;99521.44;;;11.71;51.70
39405;BME280;25121;51.090;17.038;2023-04-23T02:06:07;99501.91;;;11.62;51.68
39405;BME280;25121;51.090;17.038;2023-04-23T02:07:30;99525.19;;;11.70;51.76
39405;BME280;25121;51.090;17.038;2023-04-23T02:08:57;99518.91;;;11.63;52.09
39405;BME280;25121;51.090;17.038;2023-04-23T02:10:21;99514.34;;;11.63;52.04
39405;BME280;25121;51.090;17.038;2023-04-23T02:11:48;99519.97;;;11.69;51.91
39405;BME280;25121;51.090;17.038;2023-04-23T02:13:09;99514.34;;;11.63;51.90
39405;BME280;25121;51.090;17.038;2023-04-23T02:14:32;99511.66;;;11.63;52.23
39405;BME280;25121;51.090;17.038;2023-04-23T02:15:55;99511.84;;;11.62;52.17
39405;BME280;25121;51.090;17.038;2023-04-23T02:17:20;99521.78;;;11.61;52.41
39405;BME280;25121;51.090;17.038;2023-04-23T02:18:44;99523.66;;;11.61;52.19
39405;BME280;25121;51.090;17.038;2023-04-23T02:20:11;99509.13;;;11.55;52.09
39405;BME280;25121;51.090;17.038;2023-04-23T02:21:40;99514.13;;;11.58;52.05
39405;BME280;25121;51.090;17.038;2023-04-23T02:23:05;99512.66;;;11.56;52.23
39405;BME280;25121;51.090;17.038;2023-04-23T02:24:32;99512.19;;;11.52;52.36
39405;BME280;25121;51.090;17.038;2023-04-23T02:25:57;99514.69;;;11.54;52.48
39405;BME280;25121;51.090;17.038;2023-04-23T02:27:21;99515.75;;;11.53;52.41
39405;BME280;25121;51.090;17.038;2023-04-23T02:28:42;99511.56;;;11.50;52.52
39405;BME280;25121;51.090;17.038;2023-04-23T02:30:09;99510.72;;;11.50;52.58
39405;BME280;25121;51.090;17.038;2023-04-23T02:31:34;99510.94;;;11.48;52.53
39405;BME280;25121;51.090;17.038;2023-04-23T02:33:07;99511.13;;;11.47;52.59
39405;BME280;25121;51.090;17.038;2023-04-23T02:34:43;99505.91;;;11.45;52.67
39405;BME280;25121;51.090;17.038;2023-04-23T02:36:06;99497.59;;;11.40;52.83
39405;BME280;25121;51.090;17.038;2023-04-23T02:37:31;99506.31;;;11.42;52.87
39405;BME280;25121;51.090;17.038;2023-04-23T02:38:52;99504.84;;;11.39;52.66
39405;BME280;25121;51.090;17.038;2023-04-23T02:40:14;99501.50;;;11.37;52.84
39405;BME280;25121;51.090;17.038;2023-04-23T02:41:37;99512.91;;;11.39;52.89
39405;BME280;25121;51.090;17.038;2023-04-23T02:42:59;99504.22;;;11.37;52.82
39405;BME280;25121;51.090;17.038;2023-04-23T02:44:21;99506.66;;;11.32;52.72
39405;BME280;25121;51.090;17.038;2023-04-23T02:46:02;99512.50;;;11.36;53.05
39405;BME280;25121;51.090;17.038;2023-04-23T02:47:29;99507.47;;;11.33;52.69
39405;BME280;25121;51.090;17.038;2023-04-23T02:48:53;99503.13;;;11.32;52.75
39405;BME280;25121;51.090;17.038;2023-04-23T02:50:15;99507.69;;;11.31;52.80
39405;BME280;25121;51.090;17.038;2023-04-23T02:51:37;99511.38;;;11.30;52.97
39405;BME280;25121;51.090;17.038;2023-04-23T02:53:01;99513.25;;;11.30;53.08
39405;BME280;25121;51.090;17.038;2023-04-23T02:54:23;99514.28;;;11.29;53.19
39405;BME280;25121;51.090;17.038;2023-04-23T02:55:44;99510.13;;;11.26;52.88
39405;BME280;25121;51.090;17.038;2023-04-23T02:57:10;99501.41;;;11.24;53.16
39405;BME280;25121;51.090;17.038;2023-04-23T02:58:34;99511.34;;;11.24;53.33
39405;BME280;25121;51.090;17.038;2023-04-23T02:59:55;99512.56;;;11.21;52.93
39405;BME280;25121;51.090;17.038;2023-04-23T03:01:25;99508.41;;;11.18;52.90
39405;BME280;25121;51.090;17.038;2023-04-23T03:02:51;99511.47;;;11.15;52.79
39405;BME280;25121;51.090;17.038;2023-04-23T03:04:14;99510.47;;;11.16;52.92
39405;BME280;25121;51.090;17.038;2023-04-23T03:05:38;99517.06;;;11.14;53.18
39405;BME280;25121;51.090;17.038;2023-04-23T03:06:59;99523.44;;;11.13;53.22
39405;BME280;25121;51.090;17.038;2023-04-23T03:08:25;99514.75;;;11.11;53.40
39405;BME280;25121;51.090;17.038;2023-04-23T03:09:47;99511.22;;;11.10;53.40
39405;BME280;25121;51.090;17.038;2023-04-23T03:11:09;99505.41;;;11.07;53.54
39405;BME280;25121;51.090;17.038;2023-04-23T03:12:33;99506.63;;;11.04;53.62
39405;BME280;25121;51.090;17.038;2023-04-23T03:13:58;99514.28;;;11.07;53.68
39405;BME280;25121;51.090;17.038;2023-04-23T03:15:21;99508.47;;;11.04;53.67
39405;BME280;25121;51.090;17.038;2023-04-23T03:16:47;99512.81;;;11.05;53.66
39405;BME280;25121;51.090;17.038;2023-04-23T03:18:11;99501.44;;;11.03;53.81
39405;BME280;25121;51.090;17.038;2023-04-23T03:19:32;99502.38;;;10.95;53.68
39405;BME280;25121;51.090;17.038;2023-04-23T03:20:56;99512.38;;;11.01;53.89
39405;BME280;25121;51.090;17.038;2023-04-23T03:22:20;99510.91;;;10.98;53.89
39405;BME280;25121;51.090;17.038;2023-04-23T03:23:42;99510.91;;;10.98;53.74
39405;BME280;25121;51.090;17.038;2023-04-23T03:25:04;99512.97;;;10.96;54.17
39405;BME280;25121;51.090;17.038;2023-04-23T03:26:31;99513.78;;;10.97;54.21
39405;BME280;25121;51.090;17.038;2023-04-23T03:27:54;99506.75;;;10.96;54.03
39405;BME280;25121;51.090;17.038;2023-04-23T03:29:17;99508.59;;;10.95;54.12
39405;BME280;25121;51.090;17.038;2023-04-23T03:30:41;99504.25;;;10.94;54.14
39405;BME280;25121;51.090;17.038;2023-04-23T03:32:04;99501.94;;;10.91;54.15
39405;BME280;25121;51.090;17.038;2023-04-23T03:33:26;99512.50;;;10.93;54.09
39405;BME280;25121;51.090;17.038;2023-04-23T03:34:49;99502.97;;;10.90;54.21
39405;BME280;25121;51.090;17.038;2023-04-23T03:36:14;99505.66;;;10.90;54.16
39405;BME280;25121;51.090;17.038;2023-04-23T03:37:37;99501.31;;;10.89;54.46
39405;BME280;25121;51.090;17.038;2023-04-23T03:39:03;99500.47;;;10.89;53.95
39405;BME280;25121;51.090;17.038;2023-04-23T03:40:39;99494.47;;;10.87;54.24
39405;BME280;25121;51.090;17.038;2023-04-23T03:42:10;99495.69;;;10.84;54.39
39405;BME280;25121;51.090;17.038;2023-04-23T03:43:35;99502.69;;;10.85;54.26
39405;BME280;25121;51.090;17.038;2023-04-23T03:44:57;99498.38;;;10.84;54.22
39405;BME280;25121;51.090;17.038;2023-04-23T03:46:19;99501.06;;;10.84;54.39
39405;BME280;25121;51.090;17.038;2023-04-23T03:47:45;99498.53;;;10.83;54.45
39405;BME280;25121;51.090;17.038;2023-04-23T03:49:12;99507.66;;;10.82;54.26
39405;BME280;25121;51.090;17.038;2023-04-23T03:50:33;99497.47;;;10.77;54.44
39405;BME280;25121;51.090;17.038;2023-04-23T03:52:38;99502.00;;;10.76;54.42
39405;BME280;25121;51.090;17.038;2023-04-23T03:54:07;99498.69;;;10.74;54.60
39405;BME280;25121;51.090;17.038;2023-04-23T03:55:50;99498.69;;;10.74;54.45
39405;BME280;25121;51.090;17.038;2023-04-23T03:57:13;99503.00;;;10.75;54.49
39405;BME280;25121;51.090;17.038;2023-04-23T03:58:57;99496.00;;;10.74;54.40
39405;BME280;25121;51.090;17.038;2023-04-23T04:00:20;99495.16;;;10.74;54.73
39405;BME280;25121;51.090;17.038;2023-04-23T04:01:42;99497.84;;;10.74;54.62
39405;BME280;25121;51.090;17.038;2023-04-23T04:03:04;99499.50;;;10.75;54.80
39405;BME280;25121;51.090;17.038;2023-04-23T04:04:29;99502.41;;;10.73;54.63
39405;BME280;25121;51.090;17.038;2023-04-23T04:05:51;99490.34;;;10.69;54.81
39405;BME280;25121;51.090;17.038;2023-04-23T04:07:13;99501.53;;;10.73;54.71
39405;BME280;25121;51.090;17.038;2023-04-23T04:08:35;99504.06;;;10.74;54.49
39405;BME280;25121;51.090;17.038;2023-04-23T04:10:01;99493.31;;;10.74;54.67
39405;BME280;25121;51.090;17.038;2023-04-23T04:11:23;99497.03;;;10.73;54.55
39405;BME280;25121;51.090;17.038;2023-04-23T04:12:45;99499.88;;;10.72;54.58
39405;BME280;25121;51.090;17.038;2023-04-23T04:14:09;99506.75;;;10.74;54.74
39405;BME280;25121;51.090;17.038;2023-04-23T04:15:31;99496.16;;;10.73;54.53
39405;BME280;25121;51.090;17.038;2023-04-23T04:16:53;99495.34;;;10.72;54.58
39405;BME280;25121;51.090;17.038;2023-04-23T04:18:16;99500.16;;;10.77;54.67
39405;BME280;25121;51.090;17.038;2023-04-23T04:19:42;99496.44;;;10.78;54.35
39405;BME280;25121;51.090;17.038;2023-04-23T04:21:05;99503.47;;;10.79;54.58
39405;BME280;25121;51.090;17.038;2023-04-23T04:22:26;99505.97;;;10.81;54.63
39405;BME280;25121;51.090;17.038;2023-04-23T04:23:48;99505.97;;;10.81;54.77
39405;BME280;25121;51.090;17.038;2023-04-23T04:25:11;99499.41;;;10.83;54.61
39405;BME280;25121;51.090;17.038;2023-04-23T04:26:40;99500.22;;;10.84;54.78
39405;BME280;25121;51.090;17.038;2023-04-23T04:28:01;99501.06;;;10.84;54.44
39405;BME280;25121;51.090;17.038;2023-04-23T04:29:25;99502.69;;;10.85;54.46
39405;BME280;25121;51.090;17.038;2023-04-23T04:30:46;99498.19;;;10.86;54.54
39405;BME280;25121;51.090;17.038;2023-04-23T04:32:10;99490.94;;;10.86;54.67
39405;BME280;25121;51.090;17.038;2023-04-23T04:33:35;99496.09;;;10.88;54.63
39405;BME280;25121;51.090;17.038;2023-04-23T04:34:59;99495.75;;;10.91;54.37
39405;BME280;25121;51.090;17.038;2023-04-23T04:36:22;99490.38;;;10.91;54.45
39405;BME280;25121;51.090;17.038;2023-04-23T04:37:45;99485.00;;;10.91;54.36
39405;BME280;25121;51.090;17.038;2023-04-23T04:39:07;99484.59;;;10.94;54.35
39405;BME280;25121;51.090;17.038;2023-04-23T04:40:30;99493.31;;;10.96;54.36
39405;BME280;25121;51.090;17.038;2023-04-23T04:41:51;99497.47;;;10.98;54.23
39405;BME280;25121;51.090;17.038;2023-04-23T04:43:14;99492.75;;;11.01;54.45
39405;BME280;25121;51.090;17.038;2023-04-23T04:44:38;99497.91;;;11.02;54.29
39405;BME280;25121;51.090;17.038;2023-04-23T04:46:01;99490.66;;;11.03;54.31
39405;BME280;25121;51.090;17.038;2023-04-23T04:47:27;99491.31;;;11.05;54.27
39405;BME280;25121;51.090;17.038;2023-04-23T04:48:48;99494.00;;;11.05;53.96
39405;BME280;25121;51.090;17.038;2023-04-23T04:50:13;99496.50;;;11.06;54.13
39405;BME280;25121;51.090;17.038;2023-04-23T04:51:36;99490.09;;;11.07;54.01
39405;BME280;25121;51.090;17.038;2023-04-23T04:52:57;99494.25;;;11.10;54.23
39405;BME280;25121;51.090;17.038;2023-04-23T04:54:19;99492.22;;;11.12;54.18
39405;BME280;25121;51.090;17.038;2023-04-23T04:55:41;99493.69;;;11.14;54.13
39405;BME280;25121;51.090;17.038;2023-04-23T04:57:03;99487.47;;;11.14;54.07
39405;BME280;25121;51.090;17.038;2023-04-23T04:58:24;99489.59;;;11.18;54.08
39405;BME280;25121;51.090;17.038;2023-04-23T05:00:20;99492.53;;;11.24;53.75
39405;BME280;25121;51.090;17.038;2023-04-23T05:01:47;99487.41;;;11.29;53.77
39405;BME280;25121;51.090;17.038;2023-04-23T05:03:09;99490.31;;;11.34;53.57
39405;BME280;25121;51.090;17.038;2023-04-23T05:04:34;99485.19;;;11.39;53.68
39405;BME280;25121;51.090;17.038;2023-04-23T05:05:56;99483.97;;;11.41;53.50
39405;BME280;25121;51.090;17.038;2023-04-23T05:07:20;99483.16;;;11.48;53.49
39405;BME280;25121;51.090;17.038;2023-04-23T05:08:45;99483.22;;;11.54;53.47
39405;BME280;25121;51.090;17.038;2023-04-23T05:10:13;99488.84;;;11.59;53.25
39405;BME280;25121;51.090;17.038;2023-04-23T05:11:36;99484.53;;;11.65;53.18
39405;BME280;25121;51.090;17.038;2023-04-23T05:13:02;99481.06;;;11.71;53.17
39405;BME280;25121;51.090;17.038;2023-04-23T05:14:23;99484.19;;;11.75;53.01
39405;BME280;25121;51.090;17.038;2023-04-23T05:15:49;99478.22;;;11.79;53.16
39405;BME280;25121;51.090;17.038;2023-04-23T05:17:16;99482.25;;;11.90;52.93
39405;BME280;25121;51.090;17.038;2023-04-23T05:18:38;99487.88;;;11.95;52.95
39405;BME280;25121;51.090;17.038;2023-04-23T05:20:03;99485.84;;;12.04;52.83
39405;BME280;25121;51.090;17.038;2023-04-23T05:21:27;99482.38;;;12.10;52.50
39405;BME280;25121;51.090;17.038;2023-04-23T05:22:51;99475.97;;;12.18;52.47
39405;BME280;25121;51.090;17.038;2023-04-23T05:24:15;99480.75;;;12.22;52.35
39405;BME280;25121;51.090;17.038;2023-04-23T05:25:37;99473.91;;;12.26;52.20
39405;BME280;25121;51.090;17.038;2023-04-23T05:27:01;99476.88;;;12.38;52.01
39405;BME280;25121;51.090;17.038;2023-04-23T05:28:26;99472.97;;;12.47;52.09
39405;BME280;25121;51.090;17.038;2023-04-23T05:29:48;99475.28;;;12.57;52.04
39405;BME280;25121;51.090;17.038;2023-04-23T05:31:11;99474.88;;;12.67;51.90
39405;BME280;25121;51.090;17.038;2023-04-23T05:32:34;99465.97;;;12.73;51.81
39405;BME280;25121;51.090;17.038;2023-04-23T05:33:55;99466.63;;;12.88;51.48
39405;BME280;25121;51.090;17.038;2023-04-23T05:35:18;99475.56;;;13.02;51.14
39405;BME280;25121;51.090;17.038;2023-04-23T05:36:39;99468.31;;;13.16;50.96
39405;BME280;25121;51.090;17.038;2023-04-23T05:38:03;99468.13;;;13.31;50.49
39405;BME280;25121;51.090;17.038;2023-04-23T05:39:27;99467.91;;;13.46;50.62
39405;BME280;25121;51.090;17.038;2023-04-23T05:40:49;99480.16;;;13.62;50.31
39405;BME280;25121;51.090;17.038;2023-04-23T05:42:11;99464.53;;;13.77;50.02
39405;BME280;25121;51.090;17.038;2023-04-23T05:43:41;99470.53;;;13.92;49.52
39405;BME280;25121;51.090;17.038;2023-04-23T05:45:03;99469.66;;;14.05;49.22
39405;BME280;25121;51.090;17.038;2023-04-23T05:46:30;99465.03;;;14.19;48.71
39405;BME280;25121;51.090;17.038;2023-04-23T05:47:58;99457.06;;;14.31;48.35
39405;BME280;25121;51.090;17.038;2023-04-23T05:49:19;99461.16;;;14.47;48.49
39405;BME280;25121;51.090;17.038;2023-04-23T05:50:49;99461.34;;;14.58;48.10
39405;BME280;25121;51.090;17.038;2023-04-23T05:52:14;99461.66;;;14.75;47.92
39405;BME280;25121;51.090;17.038;2023-04-23T05:53:35;99462.84;;;14.86;47.59
39405;BME280;25121;51.090;17.038;2023-04-23T05:54:59;99462.53;;;15.01;47.68
39405;BME280;25121;51.090;17.038;2023-04-23T05:56:20;99462.63;;;15.13;47.32
39405;BME280;25121;51.090;17.038;2023-04-23T05:57:43;99462.75;;;15.24;46.97
39405;BME280;25121;51.090;17.038;2023-04-23T05:59:05;99455.56;;;15.37;46.98
39405;BME280;25121;51.090;17.038;2023-04-23T06:00:27;99457.56;;;15.48;46.79
39405;BME280;25121;51.090;17.038;2023-04-23T06:01:56;99462.38;;;15.64;46.27
39405;BME280;25121;51.090;17.038;2023-04-23T06:03:23;99457.31;;;15.75;45.87
39405;BME280;25121;51.090;17.038;2023-04-23T06:07:52;99451.91;;;16.11;45.32
39405;BME280;25121;51.090;17.038;2023-04-23T06:09:21;99450.75;;;16.19;45.19
39405;BME280;25121;51.090;17.038;2023-04-23T06:10:46;99460.53;;;16.39;44.88
39405;BME280;25121;51.090;17.038;2023-04-23T06:12:17;99451.63;;;16.50;44.63
39405;BME280;25121;51.090;17.038;2023-04-23T06:13:47;99459.78;;;16.62;44.56
39405;BME280;25121;51.090;17.038;2023-04-23T06:15:20;99450.06;;;16.72;44.11
39405;BME280;25121;51.090;17.038;2023-04-23T06:16:49;99451.19;;;16.83;43.95
39405;BME280;25121;51.090;17.038;2023-04-23T06:18:15;99453.47;;;16.98;43.50
39405;BME280;25121;51.090;17.038;2023-04-23T06:19:45;99450.53;;;17.11;43.03
39405;BME280;25121;51.090;17.038;2023-04-23T06:21:08;99458.00;;;17.28;43.02
39405;BME280;25121;51.090;17.038;2023-04-23T06:22:35;99456.13;;;17.40;43.12
39405;BME280;25121;51.090;17.038;2023-04-23T06:23:58;99449.50;;;17.48;42.73
39405;BME280;25121;51.090;17.038;2023-04-23T06:25:29;99445.50;;;17.62;42.94
39405;BME280;25121;51.090;17.038;2023-04-23T06:26:51;99451.50;;;17.76;42.63
39405;BME280;25121;51.090;17.038;2023-04-23T06:28:16;99455.41;;;17.92;42.26
39405;BME280;25121;51.090;17.038;2023-04-23T06:30:20;99456.56;;;18.07;42.19
39405;BME280;25121;51.090;17.038;2023-04-23T06:31:50;99447.56;;;18.19;41.96
39405;BME280;25121;51.090;17.038;2023-04-23T06:33:20;99458.47;;;18.36;41.75
39405;BME280;25121;51.090;17.038;2023-04-23T06:34:43;99455.72;;;18.47;41.41
39405;BME280;25121;51.090;17.038;2023-04-23T06:36:22;99431.94;;;18.55;41.11
39405;BME280;25121;51.090;17.038;2023-04-23T06:37:47;99440.88;;;18.67;40.99
39405;BME280;25121;51.090;17.038;2023-04-23T06:39:22;99447.94;;;18.80;40.75
39405;BME280;25121;51.090;17.038;2023-04-23T06:41:12;99446.94;;;19.03;40.61
39405;BME280;25121;51.090;17.038;2023-04-23T06:42:54;99437.91;;;19.14;40.40
39405;BME280;25121;51.090;17.038;2023-04-23T06:44:30;99436.97;;;19.25;40.48
39405;BME280;25121;51.090;17.038;2023-04-23T06:46:00;99441.09;;;19.45;39.88
39405;BME280;25121;51.090;17.038;2023-04-23T06:47:23;99436.13;;;19.58;39.69
39405;BME280;25121;51.090;17.038;2023-04-23T06:48:47;99432.75;;;19.68;39.74
39405;BME280;25121;51.090;17.038;2023-04-23T06:50:09;99449.31;;;19.84;39.44
39405;BME280;25121;51.090;17.038;2023-04-23T06:51:31;99443.78;;;19.95;39.41
39405;BME280;25121;51.090;17.038;2023-04-23T06:52:56;99441.16;;;20.06;38.89
39405;BME280;25121;51.090;17.038;2023-04-23T06:54:27;99428.41;;;20.11;38.68
39405;BME280;25121;51.090;17.038;2023-04-23T06:56:03;99434.31;;;20.25;38.61
39405;BME280;25121;51.090;17.038;2023-04-23T06:57:37;99427.94;;;20.41;38.64
39405;BME280;25121;51.090;17.038;2023-04-23T06:59:08;99434.72;;;20.61;38.29
39405;BME280;25121;51.090;17.038;2023-04-23T07:00:41;99436.84;;;20.81;38.19
39405;BME280;25121;51.090;17.038;2023-04-23T07:02:04;99431.50;;;20.96;37.77
39405;BME280;25121;51.090;17.038;2023-04-23T07:03:30;99422.63;;;21.11;37.56
39405;BME280;25121;51.090;17.038;2023-04-23T07:05:06;99422.28;;;21.35;37.42
39405;BME280;25121;51.090;17.038;2023-04-23T07:07:04;99411.78;;;21.59;37.50
39405;BME280;25121;51.090;17.038;2023-04-23T07:08:30;99419.06;;;21.85;36.97
39405;BME280;25121;51.090;17.038;2023-04-23T07:09:55;99405.44;;;22.01;36.72
39405;BME280;25121;51.090;17.038;2023-04-23T07:11:19;99424.19;;;22.24;36.36
39405;BME280;25121;51.090;17.038;2023-04-23T07:12:49;99418.19;;;22.43;35.87
39405;BME280;25121;51.090;17.038;2023-04-23T07:14:12;99419.34;;;22.67;35.86
39405;BME280;25121;51.090;17.038;2023-04-23T07:15:54;99418.00;;;22.90;35.49
39405;BME280;25121;51.090;17.038;2023-04-23T07:17:26;99416.94;;;23.17;35.59
39405;BME280;25121;51.090;17.038;2023-04-23T07:18:48;99421.03;;;23.40;35.10
39405;BME280;25121;51.090;17.038;2023-04-23T07:20:12;99418.00;;;23.62;34.97
39405;BME280;25121;51.090;17.038;2023-04-23T07:21:40;99416.59;;;23.85;34.39
39405;BME280;25121;51.090;17.038;2023-04-23T07:23:03;99413.22;;;24.08;33.93
39405;BME280;25121;51.090;17.038;2023-04-23T07:24:24;99416.66;;;24.29;33.70
39405;BME280;25121;51.090;17.038;2023-04-23T07:26:02;99412.75;;;24.51;33.23
39405;BME280;25121;51.090;17.038;2023-04-23T07:27:48;99414.22;;;24.78;32.91
39405;BME280;25121;51.090;17.038;2023-04-23T07:29:11;99409.38;;;24.99;32.39
39405;BME280;25121;51.090;17.038;2023-04-23T07:30:39;99396.91;;;25.11;32.27
39405;BME280;25121;51.090;17.038;2023-04-23T07:32:02;99411.28;;;25.38;31.87